Time;durP1;ratioP1;P1;durP2;ratioP2;P2;SDS_P1;SDS_P2;PMS_P1;PMS_P2;Temp;Humidity;BMP_temperature;BMP_pressure;BME280_temperature;BME280_humidity;BME280_pressure;Samples;Min_cycle;Max_cycle;Signal;HPM_P1;HPM_P2
2022/11/26 00:00:18;;;;;;;38.78;15.15;;;;;;;5.84;100.00;101949.72;5018750;28;20085;-79
2022/11/26 00:02:45;;;;;;;34.58;15.68;;;;;;;5.85;100.00;101947.94;5017300;28;20476;-80
2022/11/26 00:05:14;;;;;;;35.13;15.40;;;;;;;5.85;100.00;101946.19;5016524;28;20091;-84
2022/11/26 00:07:44;;;;;;;37.13;15.05;;;;;;;5.82;100.00;101950.72;5016301;28;20409;-79
2022/11/26 00:10:18;;;;;;;40.25;16.75;;;;;;;5.80;100.00;101948.22;5017177;28;20046;-80
2022/11/26 00:12:45;;;;;;;41.92;15.75;;;;;;;5.79;100.00;101951.75;5017161;28;20050;-79
2022/11/26 00:15:17;;;;;;;33.80;14.82;;;;;;;5.72;100.00;101955.63;5016455;28;20113;-79
2022/11/26 00:17:44;;;;;;;42.08;15.88;;;;;;;5.70;100.00;101954.06;5018341;28;20386;-79
2022/11/26 00:20:10;;;;;;;37.53;15.85;;;;;;;5.74;100.00;101960.75;5019813;28;20380;-79
2022/11/26 00:22:40;;;;;;;47.63;16.02;;;;;;;5.72;100.00;101966.03;5038768;28;20471;-79
2022/11/26 00:25:13;;;;;;;40.53;16.15;;;;;;;5.77;100.00;101960.56;5039648;28;20076;-80
2022/11/26 00:27:40;;;;;;;35.78;15.00;;;;;;;5.71;100.00;101973.91;5042207;28;20117;-80
2022/11/26 00:30:14;;;;;;;36.50;14.32;;;;;;;5.60;100.00;101971.97;5041009;28;20125;-80
2022/11/26 00:32:41;;;;;;;37.70;15.40;;;;;;;5.56;100.00;101976.50;5021737;28;20544;-80
2022/11/26 00:35:08;;;;;;;32.85;14.48;;;;;;;5.48;100.00;101977.88;5017884;28;20064;-80
2022/11/26 00:37:39;;;;;;;37.95;14.27;;;;;;;5.49;100.00;101985.59;5017520;28;20096;-80
2022/11/26 00:40:17;;;;;;;32.28;13.73;;;;;;;5.40;100.00;101970.53;5017121;28;20049;-80
2022/11/26 00:42:47;;;;;;;31.08;13.98;;;;;;;5.33;100.00;101984.81;5023194;28;20046;-82
2022/11/26 00:45:19;;;;;;;35.35;15.90;;;;;;;5.23;100.00;101983.66;5024447;28;20077;-81
2022/11/26 00:47:45;;;;;;;33.17;14.20;;;;;;;5.16;100.00;101992.75;5042283;28;20485;-80
2022/11/26 00:50:18;;;;;;;48.58;15.30;;;;;;;5.06;100.00;101986.41;5039914;28;20123;-84
2022/11/26 00:52:47;;;;;;;31.45;14.43;;;;;;;5.01;100.00;101994.44;5038647;28;20608;-81
2022/11/26 00:55:29;;;;;;;36.83;14.35;;;;;;;5.19;100.00;102002.94;5038079;28;20099;-80
2022/11/26 00:57:56;;;;;;;32.92;15.20;;;;;;;5.27;100.00;102013.69;5034332;28;20056;-81
2022/11/26 01:00:25;;;;;;;28.83;13.68;;;;;;;5.28;100.00;102023.16;5031957;28;20124;-80
2022/11/26 01:02:52;;;;;;;34.65;14.55;;;;;;;5.36;100.00;102023.56;5015926;28;20069;-80
2022/11/26 01:05:25;;;;;;;37.65;13.85;;;;;;;5.39;100.00;102023.38;5015147;28;20054;-82
2022/11/26 01:07:53;;;;;;;39.72;14.15;;;;;;;5.32;100.00;102022.91;5015074;28;20076;-80
2022/11/26 01:10:22;;;;;;;42.22;14.05;;;;;;;5.34;100.00;102023.66;5016865;28;20045;-81
2022/11/26 01:12:51;;;;;;;29.40;13.18;;;;;;;5.28;100.00;102028.34;5028668;28;20060;-80
2022/11/26 01:15:19;;;;;;;38.53;13.93;;;;;;;5.21;100.00;102034.81;5017913;28;20073;-81
2022/11/26 01:17:47;;;;;;;41.38;13.75;;;;;;;5.18;100.00;102035.00;5017769;28;20053;-79
2022/11/26 01:20:25;;;;;;;31.23;13.38;;;;;;;5.21;100.00;102042.59;5017361;28;20042;-79
2022/11/26 01:22:52;;;;;;;29.17;13.77;;;;;;;5.17;100.00;102043.72;5019287;28;20056;-80
2022/11/26 01:25:19;;;;;;;37.00;13.65;;;;;;;5.20;100.00;102046.16;5035797;28;20046;-81
2022/11/26 01:27:46;;;;;;;31.95;12.63;;;;;;;5.19;100.00;102055.69;5035923;28;20045;-81
2022/11/26 01:30:20;;;;;;;41.90;12.75;;;;;;;5.18;100.00;102059.22;5034816;28;20061;-81
2022/11/26 01:32:47;;;;;;;33.83;12.43;;;;;;;5.14;100.00;102052.50;5016041;28;20054;-79
2022/11/26 01:35:14;;;;;;;37.42;12.95;;;;;;;5.06;100.00;102043.47;5013245;28;20062;-79
2022/11/26 01:37:42;;;;;;;40.17;14.00;;;;;;;5.00;100.00;102049.84;5013219;28;20476;-82
2022/11/26 01:40:36;;;;;;;40.78;13.65;;;;;;;4.91;100.00;102051.19;5016762;28;20045;-79
2022/11/26 01:43:11;;;;;;;28.65;12.23;;;;;;;4.83;100.00;102045.59;4995053;28;20073;-79
2022/11/26 01:45:39;;;;;;;40.33;13.65;;;;;;;4.77;100.00;102050.25;5004703;28;20052;-79
2022/11/26 01:48:35;;;;;;;;;;;;;;;;;;;;;
2022/11/26 01:51:06;;;;;;;35.58;13.40;;;;;;;4.71;100.00;102048.88;5036175;28;20164;-80
2022/11/26 01:56:32;;;;;;;33.72;13.50;;;;;;;4.66;100.00;102056.06;5029259;28;20057;-81
2022/11/26 01:59:08;;;;;;;41.55;14.43;;;;;;;4.63;100.00;102056.22;5041897;28;20084;-80
2022/11/26 02:01:36;;;;;;;39.58;13.77;;;;;;;4.62;100.00;102054.56;5027730;28;20053;-80
2022/11/26 02:04:12;;;;;;;34.83;14.55;;;;;;;4.58;100.00;102058.22;5017679;28;20112;-81
2022/11/26 02:06:43;;;;;;;33.17;13.52;;;;;;;4.52;100.00;102064.56;5016015;28;20070;-79
2022/11/26 02:09:11;;;;;;;39.33;15.05;;;;;;;4.49;100.00;102050.94;5014669;28;20049;-80
2022/11/26 02:11:38;;;;;;;29.35;13.70;;;;;;;4.44;100.00;102039.97;5027936;28;20144;-81
2022/11/26 02:14:07;;;;;;;35.58;14.35;;;;;;;4.39;100.00;102048.00;5035080;28;20092;-78
2022/11/26 02:17:08;;;;;;;30.67;15.05;;;;;;;4.31;100.00;102045.81;5030918;28;20136;-80
2022/11/26 02:20:02;;;;;;;37.08;14.85;;;;;;;4.50;100.00;102042.25;5029380;28;20132;-78
2022/11/26 02:23:02;;;;;;;35.72;14.65;;;;;;;4.45;100.00;102046.84;5028321;28;20085;-78
2022/11/26 02:25:45;;;;;;;38.38;13.80;;;;;;;4.37;100.00;102049.84;5012986;28;20045;-78
2022/11/26 02:28:36;;;;;;;45.78;16.70;;;;;;;4.32;100.00;102050.06;5014254;28;20203;-82
2022/11/26 02:31:09;;;;;;;38.90;14.85;;;;;;;4.33;100.00;102046.56;5021658;28;20041;-80
2022/11/26 02:33:51;;;;;;;31.13;14.10;;;;;;;4.50;100.00;102053.44;5034478;28;20053;-78
2022/11/26 02:36:25;;;;;;;36.30;14.88;;;;;;;4.50;100.00;102055.22;5034206;28;20380;-81
2022/11/26 02:38:51;;;;;;;43.95;14.80;;;;;;;4.54;100.00;102048.94;5036972;28;20152;-80
2022/11/26 02:41:18;;;;;;;38.10;15.23;;;;;;;4.61;100.00;102042.50;5033571;28;20061;-79
2022/11/26 02:43:45;;;;;;;39.30;13.27;;;;;;;4.50;100.00;102037.91;5024815;28;20304;-79
2022/11/26 02:46:16;;;;;;;48.15;14.82;;;;;;;4.71;100.00;102043.69;5023223;28;20054;-80
2022/11/26 02:48:50;;;;;;;43.33;14.85;;;;;;;4.72;100.00;102040.19;5015684;28;20073;-79
2022/11/26 02:51:22;;;;;;;37.35;14.13;;;;;;;4.60;100.00;102035.66;5017143;28;20049;-79
2022/11/26 02:53:51;;;;;;;40.75;15.15;;;;;;;4.49;100.00;102043.16;5028816;28;20060;-78
2022/11/26 02:56:27;;;;;;;34.88;13.70;;;;;;;4.41;100.00;102040.13;5035368;28;20612;-80
2022/11/26 02:58:56;;;;;;;39.10;13.85;;;;;;;4.30;100.00;102041.53;5037444;28;20077;-79
2022/11/26 03:01:30;;;;;;;41.40;14.65;;;;;;;4.37;100.00;102028.25;5037361;28;20512;-79
2022/11/26 03:04:01;;;;;;;34.90;14.27;;;;;;;4.32;100.00;102034.53;5038244;28;20080;-80
2022/11/26 03:06:31;;;;;;;38.10;15.00;;;;;;;4.29;100.00;102031.25;5036582;28;20115;-81
2022/11/26 03:08:58;;;;;;;37.97;16.02;;;;;;;4.37;100.00;102049.00;5036395;28;20116;-81
2022/11/26 03:11:25;;;;;;;45.80;16.05;;;;;;;4.40;100.00;102054.03;5024637;28;20085;-80
2022/11/26 03:13:52;;;;;;;47.55;17.35;;;;;;;4.36;100.00;102049.91;5017221;28;20100;-80
2022/11/26 03:16:18;;;;;;;44.55;16.80;;;;;;;4.23;100.00;102052.34;5026282;28;20076;-80
2022/11/26 03:18:46;;;;;;;51.65;16.25;;;;;;;4.15;100.00;102047.56;5035902;28;20088;-80
2022/11/26 03:21:13;;;;;;;48.17;17.00;;;;;;;4.10;100.00;102052.13;5024430;28;20136;-80
2022/11/26 03:23:39;;;;;;;57.17;17.60;;;;;;;4.03;100.00;102065.47;5015732;28;20129;-80
2022/11/26 03:26:06;;;;;;;50.42;16.70;;;;;;;3.98;100.00;102057.94;5025642;28;20088;-79
2022/11/26 03:28:33;;;;;;;44.20;17.70;;;;;;;3.97;100.00;102062.28;5017566;28;20274;-80
2022/11/26 03:30:59;;;;;;;50.22;17.85;;;;;;;3.97;100.00;102069.22;5018159;28;20110;-79
2022/11/26 03:33:26;;;;;;;52.88;17.45;;;;;;;3.92;100.00;102077.22;5018325;28;20081;-81
2022/11/26 03:35:54;;;;;;;43.55;16.92;;;;;;;3.89;100.00;102076.53;5017014;28;20508;-80
2022/11/26 03:38:20;;;;;;;38.40;16.38;;;;;;;3.86;100.00;102074.09;5015600;28;20173;-79
2022/11/26 03:40:56;;;;;;;45.78;18.13;;;;;;;3.79;100.00;102083.09;5020445;28;20052;-79
2022/11/26 03:43:23;;;;;;;45.08;16.85;;;;;;;3.76;100.00;102078.94;5036017;28;20103;-79
2022/11/26 03:45:49;;;;;;;48.40;17.33;;;;;;;3.76;100.00;102083.25;5032104;28;20058;-79
2022/11/26 03:48:16;;;;;;;40.78;16.40;;;;;;;3.66;100.00;102081.13;5019064;28;20046;-81
2022/11/26 03:50:43;;;;;;;47.53;17.42;;;;;;;3.60;100.00;102084.03;5019062;28;20085;-81
2022/11/26 03:53:11;;;;;;;42.67;17.00;;;;;;;3.59;100.00;102084.09;5024987;28;20413;-80
2022/11/26 03:55:37;;;;;;;44.65;17.25;;;;;;;3.62;100.00;102107.25;5035606;28;20419;-79
2022/11/26 03:58:04;;;;;;;51.33;17.27;;;;;;;3.64;100.00;102114.03;5018493;28;20057;-80
2022/11/26 04:00:31;;;;;;;55.75;18.77;;;;;;;3.59;100.00;102109.97;5025937;28;20088;-80
2022/11/26 04:02:57;;;;;;;52.92;18.02;;;;;;;3.51;100.00;102112.94;5038098;28;20346;-81
2022/11/26 04:05:24;;;;;;;43.08;18.30;;;;;;;3.48;100.00;102105.31;5036290;28;20168;-79
2022/11/26 04:07:51;;;;;;;51.60;18.45;;;;;;;3.43;100.00;102115.06;5035512;28;20145;-79
2022/11/26 04:10:19;;;;;;;43.65;16.90;;;;;;;3.49;100.00;102116.50;5036072;28;20045;-80
2022/11/26 04:12:45;;;;;;;48.92;16.88;;;;;;;3.54;100.00;102120.56;5016880;28;20049;-79
2022/11/26 04:15:12;;;;;;;41.17;16.85;;;;;;;3.58;100.00;102121.25;5015679;28;20053;-80
2022/11/26 04:17:38;;;;;;;42.58;18.02;;;;;;;3.60;100.00;102129.78;5034887;28;20136;-80
2022/11/26 04:20:06;;;;;;;52.53;17.98;;;;;;;3.55;100.00;102132.59;5021609;28;20073;-80
2022/11/26 04:22:33;;;;;;;45.95;17.85;;;;;;;3.46;100.00;102138.19;5013924;28;20397;-79
2022/11/26 04:25:00;;;;;;;47.70;16.83;;;;;;;3.34;100.00;102133.59;5013729;28;20046;-80
2022/11/26 04:27:28;;;;;;;46.80;17.40;;;;;;;3.38;100.00;102139.47;5014179;28;20088;-80
2022/11/26 04:29:55;;;;;;;42.13;17.35;;;;;;;3.16;100.00;102119.81;5035923;22;20064;-77
2022/11/26 04:32:21;;;;;;;44.33;16.77;;;;;;;3.25;100.00;102153.00;5031964;28;20107;-77
2022/11/26 04:34:48;;;;;;;34.22;15.65;;;;;;;3.12;100.00;102133.78;5032436;28;20259;-79
2022/11/26 04:37:15;;;;;;;46.40;15.52;;;;;;;3.35;100.00;102158.56;5032013;28;20607;-78
2022/11/26 04:39:41;;;;;;;32.95;14.93;;;;;;;3.33;100.00;102162.97;5031977;28;20081;-80
2022/11/26 04:42:08;;;;;;;38.50;14.80;;;;;;;3.16;100.00;102137.06;5026621;28;20081;-78
2022/11/26 04:44:36;;;;;;;37.17;13.98;;;;;;;3.32;100.00;102163.88;5012733;28;20115;-78
2022/11/26 04:47:03;;;;;;;46.28;14.52;;;;;;;3.47;100.00;102170.09;5027780;28;20081;-78
2022/11/26 04:49:29;;;;;;;37.65;14.32;;;;;;;3.33;100.00;102168.13;5032708;28;20136;-79
2022/11/26 04:51:56;;;;;;;38.78;14.40;;;;;;;3.36;100.00;102168.00;5032778;28;20045;-79
2022/11/26 04:54:22;;;;;;;45.45;14.10;;;;;;;3.27;100.00;102161.53;5025503;28;20050;-79
2022/11/26 04:56:49;;;;;;;33.10;12.35;;;;;;;3.30;100.00;102173.50;5018365;28;20483;-79
2022/11/26 04:59:16;;;;;;;35.50;14.00;;;;;;;3.27;100.00;102178.81;5033696;28;20058;-79
2022/11/26 05:01:44;;;;;;;31.23;13.57;;;;;;;3.31;100.00;102182.91;5020447;28;20046;-81
2022/11/26 05:04:10;;;;;;;39.72;15.63;;;;;;;3.22;100.00;102175.59;5014361;28;20074;-83
2022/11/26 05:06:37;;;;;;;46.28;14.88;;;;;;;3.15;100.00;102187.97;5015244;28;20168;-79
2022/11/26 05:09:04;;;;;;;38.03;14.27;;;;;;;3.21;100.00;102194.59;5014531;28;20109;-78
2022/11/26 05:11:30;;;;;;;32.70;14.02;;;;;;;3.22;100.00;102186.78;5012614;28;20527;-79
2022/11/26 05:13:57;;;;;;;31.42;13.60;;;;;;;3.21;100.00;102192.03;5012117;28;20092;-77
2022/11/26 05:16:23;;;;;;;39.58;15.13;;;;;;;3.16;100.00;102196.56;5021956;28;20128;-79
2022/11/26 05:18:51;;;;;;;38.10;13.65;;;;;;;3.13;100.00;102191.53;5031645;28;20128;-78
2022/11/26 05:21:18;;;;;;;36.17;14.27;;;;;;;3.07;100.00;102191.81;5031487;28;20478;-79
2022/11/26 05:23:44;;;;;;;35.65;16.42;;;;;;;3.03;100.00;102191.09;5020155;28;20046;-78
2022/11/26 05:26:11;;;;;;;32.65;14.23;;;;;;;3.03;100.00;102180.75;5011785;28;20054;-78
2022/11/26 05:28:38;;;;;;;33.10;14.63;;;;;;;2.94;100.00;102194.94;5011744;28;20149;-79
2022/11/26 05:31:05;;;;;;;34.17;13.60;;;;;;;2.93;100.00;102200.19;5021020;28;20429;-77
2022/11/26 05:33:32;;;;;;;36.17;13.43;;;;;;;2.89;100.00;102189.13;5032718;28;20460;-78
2022/11/26 05:36:00;;;;;;;29.70;12.70;;;;;;;3.01;100.00;102203.25;5032743;28;20052;-80
2022/11/26 05:38:27;;;;;;;33.78;13.27;;;;;;;2.99;100.00;102195.56;5031789;28;20471;-78
2022/11/26 05:40:53;;;;;;;30.98;13.23;;;;;;;2.89;100.00;102191.72;5030917;28;20045;-78
2022/11/26 05:43:20;;;;;;;26.58;12.05;;;;;;;2.93;100.00;102200.19;5031625;28;20049;-77
2022/11/26 05:45:47;;;;;;;27.48;12.00;;;;;;;2.91;100.00;102202.00;5025599;28;20116;-78
2022/11/26 05:48:13;;;;;;;36.13;12.70;;;;;;;2.95;100.00;102203.53;5011385;28;20132;-77
2022/11/26 05:50:40;;;;;;;27.73;11.35;;;;;;;2.92;100.00;102203.66;5011463;28;20140;-79
2022/11/26 05:53:08;;;;;;;31.85;12.93;;;;;;;3.02;100.00;102212.69;5012211;28;20133;-77
2022/11/26 05:55:35;;;;;;;37.50;11.88;;;;;;;3.02;100.00;102209.28;5011833;28;20058;-76
2022/11/26 05:58:01;;;;;;;29.10;11.15;;;;;;;3.03;100.00;102203.19;5011547;28;20123;-77
2022/11/26 06:00:28;;;;;;;25.52;11.52;;;;;;;2.97;100.00;102210.31;5014606;28;20129;-77
2022/11/26 06:02:55;;;;;;;29.52;12.55;;;;;;;2.91;100.00;102205.41;5032229;28;20115;-76
2022/11/26 06:05:21;;;;;;;26.58;11.15;;;;;;;2.93;100.00;102210.50;5031678;28;20087;-77
2022/11/26 06:07:48;;;;;;;32.90;11.00;;;;;;;2.93;100.00;102213.94;5031163;28;20085;-78
2022/11/26 06:10:16;;;;;;;29.30;11.27;;;;;;;2.93;100.00;102208.78;5030999;28;20052;-77
2022/11/26 06:12:43;;;;;;;28.42;11.00;;;;;;;3.01;100.00;102218.78;5031422;28;20069;-77
2022/11/26 06:15:10;;;;;;;31.67;13.43;;;;;;;3.03;100.00;102213.53;5034029;28;20128;-76
2022/11/26 06:17:36;;;;;;;31.10;11.40;;;;;;;3.03;100.00;102216.97;5015615;28;20088;-80
2022/11/26 06:20:04;;;;;;;34.15;11.85;;;;;;;2.96;100.00;102220.72;5015573;28;20128;-78
2022/11/26 06:22:35;;;;;;;32.15;11.73;;;;;;;2.96;100.00;102218.97;5035227;28;20536;-77
2022/11/26 06:25:02;;;;;;;29.27;12.20;;;;;;;2.98;100.00;102227.50;5027483;28;20078;-77
2022/11/26 06:27:32;;;;;;;27.42;10.88;;;;;;;2.98;100.00;102227.50;5014667;28;20137;-77
2022/11/26 06:29:59;;;;;;;30.77;11.63;;;;;;;3.04;100.00;102222.97;5014210;28;20129;-78
2022/11/26 06:32:25;;;;;;;34.00;11.27;;;;;;;3.05;100.00;102224.66;5033287;28;20080;-78
2022/11/26 06:34:52;;;;;;;31.63;13.02;;;;;;;2.99;100.00;102226.59;5034664;28;20092;-78
2022/11/26 06:37:19;;;;;;;28.67;11.63;;;;;;;2.87;100.00;102231.47;5015084;28;20085;-78
2022/11/26 06:39:45;;;;;;;32.30;11.93;;;;;;;2.81;100.00;102248.13;5014149;28;20432;-78
2022/11/26 06:42:12;;;;;;;27.83;11.30;;;;;;;2.81;100.00;102255.88;5014594;28;20054;-81
2022/11/26 06:44:40;;;;;;;29.98;11.65;;;;;;;2.77;100.00;102254.31;5014932;28;20423;-78
2022/11/26 06:47:10;;;;;;;25.30;10.55;;;;;;;2.75;100.00;102257.88;5031005;28;20076;-79
2022/11/26 06:49:37;;;;;;;26.58;11.25;;;;;;;2.66;100.00;102259.94;5034092;28;20141;-79
2022/11/26 06:52:04;;;;;;;21.58;10.60;;;;;;;2.67;100.00;102265.97;5034468;28;20080;-77
2022/11/26 06:54:30;;;;;;;28.70;11.43;;;;;;;2.69;100.00;102260.72;5025966;28;20145;-78
2022/11/26 06:56:57;;;;;;;28.40;10.98;;;;;;;2.74;100.00;102262.22;5014988;28;20046;-77
2022/11/26 06:59:24;;;;;;;29.25;11.10;;;;;;;2.74;100.00;102267.38;5016545;28;20081;-78
2022/11/26 07:01:52;;;;;;;31.00;12.20;;;;;;;2.72;100.00;102258.00;5019957;28;20142;-78
2022/11/26 07:04:18;;;;;;;28.85;10.82;;;;;;;2.70;100.00;102262.41;5014394;28;20086;-77
2022/11/26 07:06:45;;;;;;;23.73;9.85;;;;;;;2.65;100.00;102278.09;5014361;28;20054;-79
2022/11/26 07:09:15;;;;;;;28.88;10.02;;;;;;;2.73;100.00;102281.22;5014653;28;20552;-79
2022/11/26 07:11:42;;;;;;;25.55;10.50;;;;;;;2.90;100.00;102285.63;5014810;28;20535;-82
2022/11/26 07:14:09;;;;;;;23.60;10.65;;;;;;;2.94;100.00;102295.78;5016802;28;20092;-79
2022/11/26 07:16:36;;;;;;;28.92;11.30;;;;;;;3.03;100.00;102293.72;5027934;28;20077;-80
2022/11/26 07:19:04;;;;;;;30.80;11.07;;;;;;;3.00;100.00;102295.50;5034044;28;20161;-78
2022/11/26 07:21:31;;;;;;;29.52;11.05;;;;;;;3.03;100.00;102304.06;5033833;28;20409;-78
2022/11/26 07:23:58;;;;;;;36.35;12.25;;;;;;;2.98;100.00;102296.50;5032911;28;20076;-78
2022/11/26 07:26:25;;;;;;;28.85;10.70;;;;;;;2.98;100.00;102307.66;5032797;28;20081;-79
2022/11/26 07:28:51;;;;;;;26.60;11.38;;;;;;;3.01;100.00;102304.13;5033769;28;20165;-78
2022/11/26 07:31:20;;;;;;;37.25;11.30;;;;;;;3.07;100.00;102321.13;5024645;28;20115;-78
2022/11/26 07:33:47;;;;;;;31.92;11.57;;;;;;;3.00;100.00;102323.13;5021444;28;20133;-79
2022/11/26 07:36:17;;;;;;;28.25;10.88;;;;;;;3.03;100.00;102319.56;5034563;28;20475;-79
2022/11/26 07:38:44;;;;;;;32.55;11.13;;;;;;;3.02;100.00;102316.13;5034624;28;20067;-79
2022/11/26 07:41:13;;;;;;;28.98;10.93;;;;;;;3.08;100.00;102320.22;5032998;28;20081;-78
2022/11/26 07:43:42;;;;;;;20.42;10.80;;;;;;;3.14;100.00;102315.63;5034536;28;20463;-78
2022/11/26 07:46:11;;;;;;;27.88;10.90;;;;;;;3.24;100.00;102313.47;5032549;28;20045;-79
2022/11/26 07:48:39;;;;;;;24.42;11.13;;;;;;;3.36;100.00;102315.50;5034040;28;20535;-80
2022/11/26 07:51:06;;;;;;;36.20;12.48;;;;;;;3.37;100.00;102321.50;5033171;28;20061;-79
2022/11/26 07:53:36;;;;;;;32.53;11.60;;;;;;;3.41;100.00;102315.28;5019483;28;20124;-80
2022/11/26 07:56:04;;;;;;;27.83;11.82;;;;;;;3.63;100.00;102322.03;5015191;28;20132;-79
2022/11/26 07:58:31;;;;;;;22.73;11.43;;;;;;;3.73;100.00;102321.59;5014073;28;20519;-78
2022/11/26 08:01:06;;;;;;;29.85;12.25;;;;;;;3.90;100.00;102324.22;5015224;28;20137;-79
2022/11/26 08:03:33;;;;;;;26.48;11.35;;;;;;;3.81;100.00;102314.28;5013943;28;20145;-79
2022/11/26 08:05:59;;;;;;;22.73;10.82;;;;;;;3.75;100.00;102325.81;5014701;28;20221;-79
2022/11/26 08:08:26;;;;;;;27.95;11.15;;;;;;;3.76;100.00;102317.13;5014536;28;20111;-79
2022/11/26 08:10:54;;;;;;;20.23;10.00;;;;;;;3.83;100.00;102322.81;5034329;28;20045;-79
2022/11/26 08:13:20;;;;;;;28.50;10.80;;;;;;;3.83;100.00;102315.06;5035357;28;20081;-79
2022/11/26 08:15:48;;;;;;;27.02;11.35;;;;;;;3.88;100.00;102308.75;5034268;28;20050;-80
2022/11/26 08:18:14;;;;;;;27.90;11.95;;;;;;;3.98;100.00;102320.38;5036065;28;20088;-80
2022/11/26 08:20:41;;;;;;;28.23;11.55;;;;;;;3.96;100.00;102318.75;5036996;28;20524;-78
2022/11/26 08:23:08;;;;;;;26.55;11.75;;;;;;;4.03;100.00;102321.91;5033122;28;20049;-80
2022/11/26 08:25:35;;;;;;;28.83;10.93;;;;;;;3.98;100.00;102319.53;5032204;28;20179;-79
2022/11/26 08:28:03;;;;;;;30.10;10.73;;;;;;;4.00;100.00;102315.97;5032294;28;20136;-81
2022/11/26 08:30:30;;;;;;;25.58;10.90;;;;;;;4.00;100.00;102315.13;5032010;28;20076;-78
2022/11/26 08:32:56;;;;;;;23.05;11.00;;;;;;;4.03;100.00;102325.34;5032879;28;20139;-79
2022/11/26 08:35:23;;;;;;;26.17;11.73;;;;;;;4.05;100.00;102325.25;5032876;28;20049;-78
2022/11/26 08:37:49;;;;;;;27.70;12.00;;;;;;;4.06;100.00;102329.53;5031681;28;20137;-81
2022/11/26 08:40:16;;;;;;;28.25;12.05;;;;;;;4.07;100.00;102337.22;5032376;28;20128;-78
2022/11/26 08:42:43;;;;;;;31.25;12.15;;;;;;;4.11;100.00;102338.78;5032193;28;20055;-81
2022/11/26 08:45:11;;;;;;;35.67;13.10;;;;;;;4.16;100.00;102331.63;5032300;28;20077;-78
2022/11/26 08:47:38;;;;;;;24.98;11.88;;;;;;;4.22;100.00;102326.16;5032376;28;20045;-78
2022/11/26 08:50:05;;;;;;;33.15;13.27;;;;;;;4.30;100.00;102333.53;5031652;28;20053;-77
2022/11/26 08:52:32;;;;;;;34.17;12.63;;;;;;;4.37;100.00;102336.66;5032181;28;20119;-78
2022/11/26 08:54:59;;;;;;;24.88;11.82;;;;;;;4.42;100.00;102326.91;5032278;28;20136;-78
2022/11/26 08:57:25;;;;;;;30.52;12.23;;;;;;;4.54;100.00;102334.09;5032335;28;20488;-77
2022/11/26 08:59:53;;;;;;;29.58;12.57;;;;;;;4.63;100.00;102334.50;5032575;28;20045;-77
2022/11/26 09:02:22;;;;;;;25.40;12.98;;;;;;;4.69;100.00;102340.28;5031518;28;20072;-80
2022/11/26 09:04:48;;;;;;;31.73;12.80;;;;;;;4.86;100.00;102346.28;5032500;28;20474;-78
2022/11/26 09:07:15;;;;;;;31.30;12.15;;;;;;;4.94;100.00;102348.50;5035142;28;20079;-79
2022/11/26 09:09:42;;;;;;;26.05;12.18;;;;;;;4.97;100.00;102341.41;5031345;28;20572;-78
2022/11/26 09:12:11;;;;;;;26.70;11.93;;;;;;;5.08;100.00;102353.00;5031869;28;20128;-80
2022/11/26 09:14:40;;;;;;;23.13;11.65;;;;;;;5.15;100.00;102364.75;5031281;28;20088;-79
2022/11/26 09:17:08;;;;;;;32.17;12.82;;;;;;;5.07;100.00;102361.69;5031115;28;20045;-80
2022/11/26 09:19:37;;;;;;;28.52;11.65;;;;;;;5.08;100.00;102347.81;5031264;28;20045;-79
2022/11/26 09:22:04;;;;;;;23.92;11.05;;;;;;;5.20;100.00;102367.94;5024818;28;20046;-79
2022/11/26 09:24:30;;;;;;;24.35;11.35;;;;;;;5.25;100.00;102364.16;5029226;28;20090;-75
2022/11/26 09:26:57;;;;;;;25.10;12.07;;;;;;;5.36;100.00;102366.19;5030723;28;20152;-77
2022/11/26 09:29:24;;;;;;;28.13;11.00;;;;;;;5.37;100.00;102360.09;5029333;28;20514;-78
2022/11/26 09:31:51;;;;;;;31.25;12.15;;;;;;;5.43;100.00;102364.97;5030935;28;20115;-77
2022/11/26 09:34:17;;;;;;;20.55;11.50;;;;;;;5.49;100.00;102362.06;5029175;28;20073;-78
2022/11/26 09:36:45;;;;;;;31.08;13.00;;;;;;;5.65;100.00;102360.31;5030772;28;20049;-76
2022/11/26 09:39:13;;;;;;;26.83;11.23;;;;;;;5.73;100.00;102364.25;5029727;28;20136;-78
2022/11/26 09:41:49;;;;;;;33.15;12.13;;;;;;;5.85;100.00;102361.84;5029999;28;20052;-77
2022/11/26 09:44:25;;;;;;;27.50;12.00;;;;;;;6.05;100.00;102368.56;5031877;28;20103;-79
2022/11/26 09:47:03;;;;;;;26.95;12.00;;;;;;;6.06;100.00;102362.47;5031910;28;20056;-79
2022/11/26 09:49:36;;;;;;;22.52;11.55;;;;;;;6.17;100.00;102365.28;5030822;28;20423;-78
2022/11/26 09:52:08;;;;;;;23.92;11.90;;;;;;;6.21;100.00;102353.78;5030801;28;20514;-77
2022/11/26 09:54:39;;;;;;;25.83;12.35;;;;;;;6.16;100.00;102340.22;5029510;28;20179;-78
2022/11/26 09:57:18;;;;;;;27.45;11.13;;;;;;;6.06;100.00;102318.28;5030073;28;20053;-78
2022/11/26 09:59:48;;;;;;;30.65;11.52;;;;;;;6.19;100.00;102327.03;5028818;28;20187;-78
2022/11/26 10:02:16;;;;;;;22.88;11.02;;;;;;;6.18;100.00;102325.38;5028786;28;20045;-77
2022/11/26 10:04:43;;;;;;;26.58;11.05;;;;;;;6.28;100.00;102339.53;5029676;28;20052;-78
2022/11/26 10:07:27;;;;;;;23.70;11.80;;;;;;;6.39;100.00;102351.09;5029793;28;20149;-79
2022/11/26 10:10:05;;;;;;;24.88;10.95;;;;;;;6.44;100.00;102351.66;5028356;28;20081;-78
2022/11/26 10:12:44;;;;;;;24.45;11.50;;;;;;;6.56;100.00;102353.56;5029037;28;20050;-81
2022/11/26 10:15:16;;;;;;;27.58;11.95;;;;;;;6.62;100.00;102361.00;5028795;28;20053;-79
2022/11/26 10:17:53;;;;;;;16.42;8.45;;;;;;;6.70;100.00;102351.00;5032084;28;20499;-78
2022/11/26 10:20:43;;;;;;;23.90;11.35;;;;;;;6.77;100.00;102349.72;5029822;28;20476;-79
2022/11/26 10:23:21;;;;;;;22.42;10.45;;;;;;;6.84;100.00;102345.81;5027526;28;20097;-78
2022/11/26 10:25:51;;;;;;;23.75;10.25;;;;;;;6.91;100.00;102343.69;5028534;28;20052;-79
2022/11/26 10:28:21;;;;;;;22.40;10.50;;;;;;;6.97;100.00;102362.41;5028789;28;20115;-79
2022/11/26 10:30:55;;;;;;;22.27;11.57;;;;;;;7.21;100.00;102361.84;5030610;28;20136;-79
2022/11/26 10:33:22;;;;;;;22.92;11.05;;;;;;;7.28;100.00;102361.41;5027891;28;20060;-78
2022/11/26 10:35:49;;;;;;;22.65;12.05;;;;;;;7.48;100.00;102360.19;5029984;28;20132;-81
2022/11/26 10:38:18;;;;;;;25.40;10.55;;;;;;;7.56;100.00;102357.94;5029179;28;20135;-79
2022/11/26 10:43:18;;;;;;;23.98;10.90;;;;;;;7.91;100.00;102342.72;4996316;28;20042;-82
2022/11/26 10:45:47;;;;;;;21.17;9.40;;;;;;;8.08;100.00;102341.63;5002481;28;20041;-79
2022/11/26 10:48:22;;;;;;;20.23;9.07;;;;;;;8.12;100.00;102337.91;5004532;28;20046;-81
2022/11/26 10:50:58;;;;;;;21.95;9.32;;;;;;;8.20;100.00;102337.41;4998728;28;20057;-78
2022/11/26 10:53:28;;;;;;;21.98;8.35;;;;;;;8.31;100.00;102337.56;4992987;28;20489;-80
2022/11/26 10:55:57;;;;;;;16.88;8.68;;;;;;;8.46;100.00;102351.41;4993570;28;20074;-79
2022/11/26 10:58:26;;;;;;;14.77;7.82;;;;;;;8.48;100.00;102345.16;4992636;28;20053;-79
2022/11/26 11:01:02;;;;;;;20.25;7.65;;;;;;;8.54;100.00;102339.50;4994564;28;20046;-81
2022/11/26 11:03:31;;;;;;;15.85;6.70;;;;;;;8.64;100.00;102342.34;4994525;28;20113;-80
2022/11/26 11:06:26;;;;;;;14.05;6.47;;;;;;;8.75;99.92;102339.03;4998164;28;20060;-79
2022/11/26 11:08:55;;;;;;;21.15;7.15;;;;;;;8.69;99.25;102339.44;4997131;28;20065;-78
2022/11/26 11:11:23;;;;;;;16.67;6.95;;;;;;;8.71;99.17;102332.34;4995993;28;20053;-82
2022/11/26 11:13:51;;;;;;;16.80;6.80;;;;;;;8.76;98.84;102318.03;4996966;28;20070;-81
2022/11/26 11:16:26;;;;;;;18.63;6.78;;;;;;;8.87;98.35;102328.59;4997131;28;20143;-80
2022/11/26 11:18:55;;;;;;;23.65;7.50;;;;;;;8.91;98.66;102330.06;4998175;28;20482;-80
2022/11/26 11:21:25;;;;;;;16.98;6.70;;;;;;;8.88;98.51;102319.00;4997370;28;20093;-83
2022/11/26 11:24:08;;;;;;;20.55;7.47;;;;;;;8.96;98.50;102312.31;4996628;28;20491;-78
2022/11/26 11:26:42;;;;;;;18.73;7.57;;;;;;;9.05;98.58;102317.84;5002250;28;20129;-82